sensor_id;sensor_type;location;lat;lon;timestamp;P1;P2;P0
61815;PMS5003;57055;-35.296;149.168;2023-03-23T00:01:21;9;9;
61815;PMS5003;57055;-35.296;149.168;2023-03-23T00:03:51;9;9;
61815;PMS5003;57055;-35.296;149.168;2023-03-23T00:06:20;8;8;
61815;PMS5003;57055;-35.296;149.168;2023-03-23T00:08:50;6;6;
61815;PMS5003;57055;-35.296;149.168;2023-03-23T00:11:21;9;9;
61815;PMS5003;57055;-35.296;149.168;2023-03-23T00:13:53;9;9;
61815;PMS5003;57055;-35.296;149.168;2023-03-23T00:16:23;9;9;
61815;PMS5003;57055;-35.296;149.168;2023-03-23T00:18:52;11;9;
61815;PMS5003;57055;-35.296;149.168;2023-03-23T00:21:22;10;10;
61815;PMS5003;57055;-35.296;149.168;2023-03-23T00:23:52;7;7;
61815;PMS5003;57055;-35.296;149.168;2023-03-23T00:26:21;10;10;
61815;PMS5003;57055;-35.296;149.168;2023-03-23T00:28:49;8;8;
61815;PMS5003;57055;-35.296;149.168;2023-03-23T00:31:18;10;9;
61815;PMS5003;57055;-35.296;149.168;2023-03-23T00:33:48;12;9;
61815;PMS5003;57055;-35.296;149.168;2023-03-23T00:36:17;9;9;
61815;PMS5003;57055;-35.296;149.168;2023-03-23T00:38:45;7;7;
61815;PMS5003;57055;-35.296;149.168;2023-03-23T00:41:14;8;8;
61815;PMS5003;57055;-35.296;149.168;2023-03-23T00:43:43;7;7;
61815;PMS5003;57055;-35.296;149.168;2023-03-23T00:46:12;6;6;
61815;PMS5003;57055;-35.296;149.168;2023-03-23T00:48:40;9;7;
61815;PMS5003;57055;-35.296;149.168;2023-03-23T00:51:09;6;6;
61815;PMS5003;57055;-35.296;149.168;2023-03-23T00:53:39;4;4;
61815;PMS5003;57055;-35.296;149.168;2023-03-23T00:56:08;5;5;
61815;PMS5003;57055;-35.296;149.168;2023-03-23T00:58:37;6;6;
61815;PMS5003;57055;-35.296;149.168;2023-03-23T01:01:07;6;6;
61815;PMS5003;57055;-35.296;149.168;2023-03-23T01:03:36;7;7;
61815;PMS5003;57055;-35.296;149.168;2023-03-23T01:06:06;5;5;
61815;PMS5003;57055;-35.296;149.168;2023-03-23T01:08:36;5;5;
61815;PMS5003;57055;-35.296;149.168;2023-03-23T01:11:05;6;5;
61815;PMS5003;57055;-35.296;149.168;2023-03-23T01:13:34;6;6;
61815;PMS5003;57055;-35.296;149.168;2023-03-23T01:16:04;5;5;
61815;PMS5003;57055;-35.296;149.168;2023-03-23T01:18:33;4;3;
61815;PMS5003;57055;-35.296;149.168;2023-03-23T01:21:04;6;4;
61815;PMS5003;57055;-35.296;149.168;2023-03-23T01:23:33;6;5;
61815;PMS5003;57055;-35.296;149.168;2023-03-23T01:26:03;6;4;
61815;PMS5003;57055;-35.296;149.168;2023-03-23T01:28:33;5;5;
61815;PMS5003;57055;-35.296;149.168;2023-03-23T01:31:03;5;5;
61815;PMS5003;57055;-35.296;149.168;2023-03-23T01:33:33;7;6;
61815;PMS5003;57055;-35.296;149.168;2023-03-23T01:36:03;8;5;
61815;PMS5003;57055;-35.296;149.168;2023-03-23T01:38:34;6;4;
61815;PMS5003;57055;-35.296;149.168;2023-03-23T01:41:03;5;3;
61815;PMS5003;57055;-35.296;149.168;2023-03-23T01:43:32;5;3;
61815;PMS5003;57055;-35.296;149.168;2023-03-23T01:46:01;4;4;
61815;PMS5003;57055;-35.296;149.168;2023-03-23T01:48:30;3;3;
61815;PMS5003;57055;-35.296;149.168;2023-03-23T01:51:03;3;3;
61815;PMS5003;57055;-35.296;149.168;2023-03-23T01:53:37;4;4;
61815;PMS5003;57055;-35.296;149.168;2023-03-23T01:56:10;5;3;
61815;PMS5003;57055;-35.296;149.168;2023-03-23T01:58:41;4;4;
61815;PMS5003;57055;-35.296;149.168;2023-03-23T02:01:11;3;3;
61815;PMS5003;57055;-35.296;149.168;2023-03-23T02:03:44;3;3;
61815;PMS5003;57055;-35.296;149.168;2023-03-23T02:06:15;3;3;
61815;PMS5003;57055;-35.296;149.168;2023-03-23T02:08:44;2;2;
61815;PMS5003;57055;-35.296;149.168;2023-03-23T02:11:16;2;2;
61815;PMS5003;57055;-35.296;149.168;2023-03-23T02:13:47;3;3;
61815;PMS5003;57055;-35.296;149.168;2023-03-23T02:16:21;2;2;
61815;PMS5003;57055;-35.296;149.168;2023-03-23T02:18:59;4;4;
61815;PMS5003;57055;-35.296;149.168;2023-03-23T02:24:16;3;3;
61815;PMS5003;57055;-35.296;149.168;2023-03-23T02:27:10;3;3;
61815;PMS5003;57055;-35.296;149.168;2023-03-23T02:29:47;4;4;
61815;PMS5003;57055;-35.296;149.168;2023-03-23T02:32:31;3;3;
61815;PMS5003;57055;-35.296;149.168;2023-03-23T02:36:14;3;3;
61815;PMS5003;57055;-35.296;149.168;2023-03-23T02:38:54;3;3;
61815;PMS5003;57055;-35.296;149.168;2023-03-23T02:41:29;2;2;
61815;PMS5003;57055;-35.296;149.168;2023-03-23T02:44:04;1;1;
61815;PMS5003;57055;-35.296;149.168;2023-03-23T02:46:35;2;2;
61815;PMS5003;57055;-35.296;149.168;2023-03-23T02:49:06;4;4;
61815;PMS5003;57055;-35.296;149.168;2023-03-23T02:51:38;2;2;
61815;PMS5003;57055;-35.296;149.168;2023-03-23T02:54:08;2;2;
61815;PMS5003;57055;-35.296;149.168;2023-03-23T02:56:38;3;3;
61815;PMS5003;57055;-35.296;149.168;2023-03-23T02:59:09;2;2;
61815;PMS5003;57055;-35.296;149.168;2023-03-23T03:01:55;2;2;
61815;PMS5003;57055;-35.296;149.168;2023-03-23T03:04:27;2;2;
61815;PMS5003;57055;-35.296;149.168;2023-03-23T03:07:09;3;3;
61815;PMS5003;57055;-35.296;149.168;2023-03-23T03:09:52;3;3;
61815;PMS5003;57055;-35.296;149.168;2023-03-23T03:12:29;1;1;
61815;PMS5003;57055;-35.296;149.168;2023-03-23T03:15:08;3;2;
61815;PMS5003;57055;-35.296;149.168;2023-03-23T03:17:46;2;2;
61815;PMS5003;57055;-35.296;149.168;2023-03-23T03:20:21;1;1;
61815;PMS5003;57055;-35.296;149.168;2023-03-23T03:22:52;2;2;
61815;PMS5003;57055;-35.296;149.168;2023-03-23T03:25:23;3;3;
61815;PMS5003;57055;-35.296;149.168;2023-03-23T03:27:53;4;2;
61815;PMS5003;57055;-35.296;149.168;2023-03-23T03:30:24;4;4;
61815;PMS5003;57055;-35.296;149.168;2023-03-23T03:32:57;2;2;
61815;PMS5003;57055;-35.296;149.168;2023-03-23T03:35:26;6;5;
61815;PMS5003;57055;-35.296;149.168;2023-03-23T03:37:57;2;2;
61815;PMS5003;57055;-35.296;149.168;2023-03-23T03:40:32;4;4;
61815;PMS5003;57055;-35.296;149.168;2023-03-23T03:43:02;4;2;
61815;PMS5003;57055;-35.296;149.168;2023-03-23T03:45:33;5;4;
61815;PMS5003;57055;-35.296;149.168;2023-03-23T03:48:02;4;4;
61815;PMS5003;57055;-35.296;149.168;2023-03-23T03:50:31;3;3;
61815;PMS5003;57055;-35.296;149.168;2023-03-23T03:53:00;3;3;
61815;PMS5003;57055;-35.296;149.168;2023-03-23T03:55:28;5;4;
61815;PMS5003;57055;-35.296;149.168;2023-03-23T03:57:57;4;4;
61815;PMS5003;57055;-35.296;149.168;2023-03-23T04:00:25;4;4;
61815;PMS5003;57055;-35.296;149.168;2023-03-23T04:02:54;4;4;
61815;PMS5003;57055;-35.296;149.168;2023-03-23T04:05:22;5;5;
61815;PMS5003;57055;-35.296;149.168;2023-03-23T04:07:52;4;4;
61815;PMS5003;57055;-35.296;149.168;2023-03-23T04:10:20;4;4;
61815;PMS5003;57055;-35.296;149.168;2023-03-23T04:12:49;6;5;
61815;PMS5003;57055;-35.296;149.168;2023-03-23T04:15:17;3;3;
61815;PMS5003;57055;-35.296;149.168;2023-03-23T04:17:46;5;5;
61815;PMS5003;57055;-35.296;149.168;2023-03-23T04:20:15;3;2;
61815;PMS5003;57055;-35.296;149.168;2023-03-23T04:22:45;3;3;
61815;PMS5003;57055;-35.296;149.168;2023-03-23T04:25:15;3;3;
61815;PMS5003;57055;-35.296;149.168;2023-03-23T04:27:45;3;3;
61815;PMS5003;57055;-35.296;149.168;2023-03-23T04:30:15;5;3;
61815;PMS5003;57055;-35.296;149.168;2023-03-23T04:32:43;4;3;
61815;PMS5003;57055;-35.296;149.168;2023-03-23T04:35:13;4;4;
61815;PMS5003;57055;-35.296;149.168;2023-03-23T04:37:41;5;4;
61815;PMS5003;57055;-35.296;149.168;2023-03-23T04:40:12;3;3;
61815;PMS5003;57055;-35.296;149.168;2023-03-23T04:42:41;3;3;
61815;PMS5003;57055;-35.296;149.168;2023-03-23T04:45:12;5;5;
61815;PMS5003;57055;-35.296;149.168;2023-03-23T04:47:43;3;3;
61815;PMS5003;57055;-35.296;149.168;2023-03-23T04:50:12;4;4;
61815;PMS5003;57055;-35.296;149.168;2023-03-23T04:52:41;4;2;
61815;PMS5003;57055;-35.296;149.168;2023-03-23T04:55:11;4;4;
61815;PMS5003;57055;-35.296;149.168;2023-03-23T04:57:40;4;4;
61815;PMS5003;57055;-35.296;149.168;2023-03-23T05:00:09;5;4;
61815;PMS5003;57055;-35.296;149.168;2023-03-23T05:02:39;4;4;
61815;PMS5003;57055;-35.296;149.168;2023-03-23T05:05:08;5;5;
61815;PMS5003;57055;-35.296;149.168;2023-03-23T05:07:38;4;4;
61815;PMS5003;57055;-35.296;149.168;2023-03-23T05:10:08;5;5;
61815;PMS5003;57055;-35.296;149.168;2023-03-23T05:12:38;5;5;
61815;PMS5003;57055;-35.296;149.168;2023-03-23T05:15:08;2;2;
61815;PMS5003;57055;-35.296;149.168;2023-03-23T05:17:38;5;5;
61815;PMS5003;57055;-35.296;149.168;2023-03-23T05:20:10;4;4;
61815;PMS5003;57055;-35.296;149.168;2023-03-23T05:22:41;5;5;
61815;PMS5003;57055;-35.296;149.168;2023-03-23T05:25:10;3;3;
61815;PMS5003;57055;-35.296;149.168;2023-03-23T05:27:39;4;4;
61815;PMS5003;57055;-35.296;149.168;2023-03-23T05:30:09;5;5;
61815;PMS5003;57055;-35.296;149.168;2023-03-23T05:32:38;5;4;
61815;PMS5003;57055;-35.296;149.168;2023-03-23T05:35:07;4;4;
61815;PMS5003;57055;-35.296;149.168;2023-03-23T05:37:36;4;4;
61815;PMS5003;57055;-35.296;149.168;2023-03-23T05:40:06;4;4;
61815;PMS5003;57055;-35.296;149.168;2023-03-23T05:42:35;4;3;
61815;PMS5003;57055;-35.296;149.168;2023-03-23T05:45:05;4;4;
61815;PMS5003;57055;-35.296;149.168;2023-03-23T05:47:35;4;4;
61815;PMS5003;57055;-35.296;149.168;2023-03-23T05:50:06;7;5;
61815;PMS5003;57055;-35.296;149.168;2023-03-23T05:52:35;4;4;
61815;PMS5003;57055;-35.296;149.168;2023-03-23T05:55:04;5;5;
61815;PMS5003;57055;-35.296;149.168;2023-03-23T05:57:34;4;4;
61815;PMS5003;57055;-35.296;149.168;2023-03-23T06:00:04;5;5;
61815;PMS5003;57055;-35.296;149.168;2023-03-23T06:02:34;5;5;
61815;PMS5003;57055;-35.296;149.168;2023-03-23T06:05:02;6;6;
61815;PMS5003;57055;-35.296;149.168;2023-03-23T06:07:32;3;3;
61815;PMS5003;57055;-35.296;149.168;2023-03-23T06:10:01;6;6;
61815;PMS5003;57055;-35.296;149.168;2023-03-23T06:12:30;6;5;
61815;PMS5003;57055;-35.296;149.168;2023-03-23T06:14:59;5;5;
61815;PMS5003;57055;-35.296;149.168;2023-03-23T06:17:28;5;5;
61815;PMS5003;57055;-35.296;149.168;2023-03-23T06:19:57;4;4;
61815;PMS5003;57055;-35.296;149.168;2023-03-23T06:22:26;4;4;
61815;PMS5003;57055;-35.296;149.168;2023-03-23T06:24:55;6;6;
61815;PMS5003;57055;-35.296;149.168;2023-03-23T06:27:23;4;4;
61815;PMS5003;57055;-35.296;149.168;2023-03-23T06:29:53;4;4;
61815;PMS5003;57055;-35.296;149.168;2023-03-23T06:32:23;4;4;
61815;PMS5003;57055;-35.296;149.168;2023-03-23T06:34:55;5;5;
61815;PMS5003;57055;-35.296;149.168;2023-03-23T06:37:23;4;4;
61815;PMS5003;57055;-35.296;149.168;2023-03-23T06:39:52;5;5;
61815;PMS5003;57055;-35.296;149.168;2023-03-23T06:42:22;6;6;
61815;PMS5003;57055;-35.296;149.168;2023-03-23T06:44:51;5;5;
61815;PMS5003;57055;-35.296;149.168;2023-03-23T06:47:21;5;4;
61815;PMS5003;57055;-35.296;149.168;2023-03-23T06:49:50;6;5;
61815;PMS5003;57055;-35.296;149.168;2023-03-23T06:52:18;5;5;
61815;PMS5003;57055;-35.296;149.168;2023-03-23T06:54:48;2;2;
61815;PMS5003;57055;-35.296;149.168;2023-03-23T06:57:17;5;5;
61815;PMS5003;57055;-35.296;149.168;2023-03-23T06:59:46;5;3;
61815;PMS5003;57055;-35.296;149.168;2023-03-23T07:02:15;4;4;
61815;PMS5003;57055;-35.296;149.168;2023-03-23T07:04:44;5;5;
61815;PMS5003;57055;-35.296;149.168;2023-03-23T07:07:13;4;4;
61815;PMS5003;57055;-35.296;149.168;2023-03-23T07:09:41;3;3;
61815;PMS5003;57055;-35.296;149.168;2023-03-23T07:12:11;4;4;
61815;PMS5003;57055;-35.296;149.168;2023-03-23T07:14:40;4;4;
61815;PMS5003;57055;-35.296;149.168;2023-03-23T07:17:09;6;5;
61815;PMS5003;57055;-35.296;149.168;2023-03-23T07:19:38;2;2;
61815;PMS5003;57055;-35.296;149.168;2023-03-23T07:22:07;6;4;
61815;PMS5003;57055;-35.296;149.168;2023-03-23T07:24:36;4;4;
61815;PMS5003;57055;-35.296;149.168;2023-03-23T07:27:05;5;5;
61815;PMS5003;57055;-35.296;149.168;2023-03-23T07:29:34;3;3;
61815;PMS5003;57055;-35.296;149.168;2023-03-23T07:32:03;5;5;
61815;PMS5003;57055;-35.296;149.168;2023-03-23T07:34:33;3;3;
61815;PMS5003;57055;-35.296;149.168;2023-03-23T07:37:02;7;5;
61815;PMS5003;57055;-35.296;149.168;2023-03-23T07:39:32;5;5;
61815;PMS5003;57055;-35.296;149.168;2023-03-23T07:42:01;5;5;
61815;PMS5003;57055;-35.296;149.168;2023-03-23T07:44:30;5;5;
61815;PMS5003;57055;-35.296;149.168;2023-03-23T07:47:00;6;6;
61815;PMS5003;57055;-35.296;149.168;2023-03-23T07:49:29;3;3;
61815;PMS5003;57055;-35.296;149.168;2023-03-23T07:51:59;3;3;
61815;PMS5003;57055;-35.296;149.168;2023-03-23T07:54:27;4;2;
61815;PMS5003;57055;-35.296;149.168;2023-03-23T07:56:56;4;4;
61815;PMS5003;57055;-35.296;149.168;2023-03-23T07:59:24;3;3;
61815;PMS5003;57055;-35.296;149.168;2023-03-23T08:01:53;4;4;
61815;PMS5003;57055;-35.296;149.168;2023-03-23T08:04:22;4;2;
61815;PMS5003;57055;-35.296;149.168;2023-03-23T08:06:50;3;3;
61815;PMS5003;57055;-35.296;149.168;2023-03-23T08:09:19;4;4;
61815;PMS5003;57055;-35.296;149.168;2023-03-23T08:11:47;2;2;
61815;PMS5003;57055;-35.296;149.168;2023-03-23T08:14:16;4;4;
61815;PMS5003;57055;-35.296;149.168;2023-03-23T08:16:44;3;3;
61815;PMS5003;57055;-35.296;149.168;2023-03-23T08:19:13;4;4;
61815;PMS5003;57055;-35.296;149.168;2023-03-23T08:21:42;5;5;
61815;PMS5003;57055;-35.296;149.168;2023-03-23T08:24:11;3;2;
61815;PMS5003;57055;-35.296;149.168;2023-03-23T08:26:40;4;4;
61815;PMS5003;57055;-35.296;149.168;2023-03-23T08:29:09;6;6;
61815;PMS5003;57055;-35.296;149.168;2023-03-23T08:31:38;3;3;
61815;PMS5003;57055;-35.296;149.168;2023-03-23T08:34:07;2;2;
61815;PMS5003;57055;-35.296;149.168;2023-03-23T08:36:35;4;4;
61815;PMS5003;57055;-35.296;149.168;2023-03-23T08:39:04;4;4;
61815;PMS5003;57055;-35.296;149.168;2023-03-23T08:41:33;3;3;
61815;PMS5003;57055;-35.296;149.168;2023-03-23T08:44:01;5;5;
61815;PMS5003;57055;-35.296;149.168;2023-03-23T08:46:31;5;5;
61815;PMS5003;57055;-35.296;149.168;2023-03-23T08:48:59;3;3;
61815;PMS5003;57055;-35.296;149.168;2023-03-23T08:51:28;2;2;
61815;PMS5003;57055;-35.296;149.168;2023-03-23T08:53:57;3;3;
61815;PMS5003;57055;-35.296;149.168;2023-03-23T08:56:26;3;3;
61815;PMS5003;57055;-35.296;149.168;2023-03-23T08:58:54;4;4;
61815;PMS5003;57055;-35.296;149.168;2023-03-23T09:01:23;3;3;
61815;PMS5003;57055;-35.296;149.168;2023-03-23T09:03:52;5;5;
61815;PMS5003;57055;-35.296;149.168;2023-03-23T09:06:20;7;5;
61815;PMS5003;57055;-35.296;149.168;2023-03-23T09:08:49;7;7;
61815;PMS5003;57055;-35.296;149.168;2023-03-23T09:11:17;6;6;
61815;PMS5003;57055;-35.296;149.168;2023-03-23T09:13:46;5;5;
61815;PMS5003;57055;-35.296;149.168;2023-03-23T09:16:14;5;5;
61815;PMS5003;57055;-35.296;149.168;2023-03-23T09:18:43;1;1;
61815;PMS5003;57055;-35.296;149.168;2023-03-23T09:21:12;5;5;
61815;PMS5003;57055;-35.296;149.168;2023-03-23T09:23:42;5;4;
61815;PMS5003;57055;-35.296;149.168;2023-03-23T09:26:11;3;2;
61815;PMS5003;57055;-35.296;149.168;2023-03-23T09:28:40;4;4;
61815;PMS5003;57055;-35.296;149.168;2023-03-23T09:31:09;3;3;
61815;PMS5003;57055;-35.296;149.168;2023-03-23T09:33:37;4;4;
61815;PMS5003;57055;-35.296;149.168;2023-03-23T09:36:07;4;4;
61815;PMS5003;57055;-35.296;149.168;2023-03-23T09:38:37;4;4;
61815;PMS5003;57055;-35.296;149.168;2023-03-23T09:41:10;7;5;
61815;PMS5003;57055;-35.296;149.168;2023-03-23T09:43:50;5;5;
61815;PMS5003;57055;-35.296;149.168;2023-03-23T09:46:32;4;4;
61815;PMS5003;57055;-35.296;149.168;2023-03-23T09:49:10;5;5;
61815;PMS5003;57055;-35.296;149.168;2023-03-23T09:51:44;5;5;
61815;PMS5003;57055;-35.296;149.168;2023-03-23T09:54:19;6;6;
61815;PMS5003;57055;-35.296;149.168;2023-03-23T09:56:50;7;7;
61815;PMS5003;57055;-35.296;149.168;2023-03-23T09:59:21;5;5;
61815;PMS5003;57055;-35.296;149.168;2023-03-23T10:01:57;5;5;
61815;PMS5003;57055;-35.296;149.168;2023-03-23T10:04:38;8;8;
61815;PMS5003;57055;-35.296;149.168;2023-03-23T10:07:12;5;5;
61815;PMS5003;57055;-35.296;149.168;2023-03-23T10:09:43;6;6;
61815;PMS5003;57055;-35.296;149.168;2023-03-23T10:12:17;7;7;
61815;PMS5003;57055;-35.296;149.168;2023-03-23T10:14:57;8;6;
61815;PMS5003;57055;-35.296;149.168;2023-03-23T10:17:33;6;6;
61815;PMS5003;57055;-35.296;149.168;2023-03-23T10:20:13;8;8;
61815;PMS5003;57055;-35.296;149.168;2023-03-23T10:22:50;7;7;
61815;PMS5003;57055;-35.296;149.168;2023-03-23T10:25:26;7;6;
61815;PMS5003;57055;-35.296;149.168;2023-03-23T10:28:01;6;5;
61815;PMS5003;57055;-35.296;149.168;2023-03-23T10:30:38;7;6;
61815;PMS5003;57055;-35.296;149.168;2023-03-23T10:33:11;7;6;
61815;PMS5003;57055;-35.296;149.168;2023-03-23T10:35:47;6;6;
61815;PMS5003;57055;-35.296;149.168;2023-03-23T10:38:24;7;7;
61815;PMS5003;57055;-35.296;149.168;2023-03-23T10:41:00;7;7;
61815;PMS5003;57055;-35.296;149.168;2023-03-23T10:43:32;7;7;
61815;PMS5003;57055;-35.296;149.168;2023-03-23T10:46:03;6;6;
61815;PMS5003;57055;-35.296;149.168;2023-03-23T10:48:43;6;6;
61815;PMS5003;57055;-35.296;149.168;2023-03-23T10:51:13;6;6;
61815;PMS5003;57055;-35.296;149.168;2023-03-23T10:53:50;7;5;
61815;PMS5003;57055;-35.296;149.168;2023-03-23T10:56:25;4;4;
61815;PMS5003;57055;-35.296;149.168;2023-03-23T10:58:55;6;6;
61815;PMS5003;57055;-35.296;149.168;2023-03-23T11:01:28;5;5;
61815;PMS5003;57055;-35.296;149.168;2023-03-23T11:03:59;4;4;
61815;PMS5003;57055;-35.296;149.168;2023-03-23T11:06:29;5;5;
61815;PMS5003;57055;-35.296;149.168;2023-03-23T11:09:01;8;6;
61815;PMS5003;57055;-35.296;149.168;2023-03-23T11:11:40;5;5;
61815;PMS5003;57055;-35.296;149.168;2023-03-23T11:14:15;6;6;
61815;PMS5003;57055;-35.296;149.168;2023-03-23T11:16:49;6;6;
61815;PMS5003;57055;-35.296;149.168;2023-03-23T11:19:22;6;6;
61815;PMS5003;57055;-35.296;149.168;2023-03-23T11:21:54;7;5;
61815;PMS5003;57055;-35.296;149.168;2023-03-23T11:24:26;7;7;
61815;PMS5003;57055;-35.296;149.168;2023-03-23T11:26:56;9;6;
61815;PMS5003;57055;-35.296;149.168;2023-03-23T11:29:26;6;6;
61815;PMS5003;57055;-35.296;149.168;2023-03-23T11:32:02;6;6;
61815;PMS5003;57055;-35.296;149.168;2023-03-23T11:34:33;8;5;
61815;PMS5003;57055;-35.296;149.168;2023-03-23T11:37:09;6;6;
61815;PMS5003;57055;-35.296;149.168;2023-03-23T11:39:46;7;6;
61815;PMS5003;57055;-35.296;149.168;2023-03-23T11:42:19;6;5;
61815;PMS5003;57055;-35.296;149.168;2023-03-23T11:44:49;7;7;
61815;PMS5003;57055;-35.296;149.168;2023-03-23T11:47:22;6;6;
61815;PMS5003;57055;-35.296;149.168;2023-03-23T11:49:59;6;6;
61815;PMS5003;57055;-35.296;149.168;2023-03-23T11:52:33;5;5;
61815;PMS5003;57055;-35.296;149.168;2023-03-23T11:55:08;6;6;
61815;PMS5003;57055;-35.296;149.168;2023-03-23T11:57:42;8;7;
61815;PMS5003;57055;-35.296;149.168;2023-03-23T12:00:12;6;6;
61815;PMS5003;57055;-35.296;149.168;2023-03-23T12:02:45;6;6;
61815;PMS5003;57055;-35.296;149.168;2023-03-23T12:05:32;8;6;
61815;PMS5003;57055;-35.296;149.168;2023-03-23T12:08:11;6;6;
61815;PMS5003;57055;-35.296;149.168;2023-03-23T12:10:51;5;5;
61815;PMS5003;57055;-35.296;149.168;2023-03-23T12:13:32;7;6;
61815;PMS5003;57055;-35.296;149.168;2023-03-23T12:16:14;7;7;
61815;PMS5003;57055;-35.296;149.168;2023-03-23T12:18:52;8;7;
61815;PMS5003;57055;-35.296;149.168;2023-03-23T12:21:30;7;7;
61815;PMS5003;57055;-35.296;149.168;2023-03-23T12:24:10;9;7;
61815;PMS5003;57055;-35.296;149.168;2023-03-23T12:26:45;8;8;
61815;PMS5003;57055;-35.296;149.168;2023-03-23T12:29:29;8;7;
61815;PMS5003;57055;-35.296;149.168;2023-03-23T12:32:17;7;7;
61815;PMS5003;57055;-35.296;149.168;2023-03-23T12:34:58;9;9;
61815;PMS5003;57055;-35.296;149.168;2023-03-23T12:37:40;8;8;
61815;PMS5003;57055;-35.296;149.168;2023-03-23T12:40:28;8;8;
61815;PMS5003;57055;-35.296;149.168;2023-03-23T12:43:05;5;5;
61815;PMS5003;57055;-35.296;149.168;2023-03-23T12:45:48;8;8;
61815;PMS5003;57055;-35.296;149.168;2023-03-23T12:48:26;9;9;
61815;PMS5003;57055;-35.296;149.168;2023-03-23T12:51:06;9;9;
61815;PMS5003;57055;-35.296;149.168;2023-03-23T12:53:43;8;8;
61815;PMS5003;57055;-35.296;149.168;2023-03-23T12:56:17;11;10;
61815;PMS5003;57055;-35.296;149.168;2023-03-23T12:58:53;8;8;
61815;PMS5003;57055;-35.296;149.168;2023-03-23T13:01:27;9;8;
61815;PMS5003;57055;-35.296;149.168;2023-03-23T13:04:00;10;9;
61815;PMS5003;57055;-35.296;149.168;2023-03-23T13:06:33;12;8;
61815;PMS5003;57055;-35.296;149.168;2023-03-23T13:09:05;6;6;
61815;PMS5003;57055;-35.296;149.168;2023-03-23T13:11:41;7;7;
61815;PMS5003;57055;-35.296;149.168;2023-03-23T13:14:16;9;7;
61815;PMS5003;57055;-35.296;149.168;2023-03-23T13:16:55;7;7;
61815;PMS5003;57055;-35.296;149.168;2023-03-23T13:19:33;8;8;
61815;PMS5003;57055;-35.296;149.168;2023-03-23T13:22:09;6;6;
61815;PMS5003;57055;-35.296;149.168;2023-03-23T13:24:44;8;8;
61815;PMS5003;57055;-35.296;149.168;2023-03-23T13:27:22;8;8;
61815;PMS5003;57055;-35.296;149.168;2023-03-23T13:29:51;7;7;
61815;PMS5003;57055;-35.296;149.168;2023-03-23T13:32:22;9;6;
61815;PMS5003;57055;-35.296;149.168;2023-03-23T13:35:00;9;8;
61815;PMS5003;57055;-35.296;149.168;2023-03-23T13:37:31;4;4;
61815;PMS5003;57055;-35.296;149.168;2023-03-23T13:40:11;5;5;
61815;PMS5003;57055;-35.296;149.168;2023-03-23T13:42:49;8;8;
61815;PMS5003;57055;-35.296;149.168;2023-03-23T13:45:21;9;8;
61815;PMS5003;57055;-35.296;149.168;2023-03-23T13:48:02;6;6;
61815;PMS5003;57055;-35.296;149.168;2023-03-23T13:50:43;6;5;
61815;PMS5003;57055;-35.296;149.168;2023-03-23T13:53:22;7;6;
61815;PMS5003;57055;-35.296;149.168;2023-03-23T13:56:03;5;5;
61815;PMS5003;57055;-35.296;149.168;2023-03-23T13:58:44;5;5;
61815;PMS5003;57055;-35.296;149.168;2023-03-23T14:01:16;5;5;
61815;PMS5003;57055;-35.296;149.168;2023-03-23T14:03:48;5;5;
61815;PMS5003;57055;-35.296;149.168;2023-03-23T14:06:18;4;4;
61815;PMS5003;57055;-35.296;149.168;2023-03-23T14:08:50;5;5;
61815;PMS5003;57055;-35.296;149.168;2023-03-23T14:11:23;6;4;
61815;PMS5003;57055;-35.296;149.168;2023-03-23T14:13:59;3;3;
61815;PMS5003;57055;-35.296;149.168;2023-03-23T14:16:32;6;5;
61815;PMS5003;57055;-35.296;149.168;2023-03-23T14:19:14;2;1;
61815;PMS5003;57055;-35.296;149.168;2023-03-23T14:21:49;4;4;
61815;PMS5003;57055;-35.296;149.168;2023-03-23T14:24:21;4;4;
61815;PMS5003;57055;-35.296;149.168;2023-03-23T14:26:52;4;4;
61815;PMS5003;57055;-35.296;149.168;2023-03-23T14:29:29;5;5;
61815;PMS5003;57055;-35.296;149.168;2023-03-23T14:31:59;5;5;
61815;PMS5003;57055;-35.296;149.168;2023-03-23T14:34:30;3;3;
61815;PMS5003;57055;-35.296;149.168;2023-03-23T14:37:00;5;5;
61815;PMS5003;57055;-35.296;149.168;2023-03-23T14:39:32;4;4;
61815;PMS5003;57055;-35.296;149.168;2023-03-23T14:42:03;7;5;
61815;PMS5003;57055;-35.296;149.168;2023-03-23T14:44:34;3;3;
61815;PMS5003;57055;-35.296;149.168;2023-03-23T14:47:10;6;5;
61815;PMS5003;57055;-35.296;149.168;2023-03-23T14:49:44;3;3;
61815;PMS5003;57055;-35.296;149.168;2023-03-23T14:52:13;5;5;
61815;PMS5003;57055;-35.296;149.168;2023-03-23T14:54:44;7;6;
61815;PMS5003;57055;-35.296;149.168;2023-03-23T14:57:14;4;4;
61815;PMS5003;57055;-35.296;149.168;2023-03-23T14:59:44;3;3;
61815;PMS5003;57055;-35.296;149.168;2023-03-23T15:02:16;4;4;
61815;PMS5003;57055;-35.296;149.168;2023-03-23T15:04:50;4;4;
61815;PMS5003;57055;-35.296;149.168;2023-03-23T15:07:22;5;4;
61815;PMS5003;57055;-35.296;149.168;2023-03-23T15:09:55;5;5;
61815;PMS5003;57055;-35.296;149.168;2023-03-23T15:12:25;5;5;
61815;PMS5003;57055;-35.296;149.168;2023-03-23T15:14:58;5;5;
61815;PMS5003;57055;-35.296;149.168;2023-03-23T15:17:30;4;4;
61815;PMS5003;57055;-35.296;149.168;2023-03-23T15:20:07;3;3;
61815;PMS5003;57055;-35.296;149.168;2023-03-23T15:22:44;4;4;
61815;PMS5003;57055;-35.296;149.168;2023-03-23T15:25:18;5;5;
61815;PMS5003;57055;-35.296;149.168;2023-03-23T15:27:50;3;3;
61815;PMS5003;57055;-35.296;149.168;2023-03-23T15:30:30;4;4;
61815;PMS5003;57055;-35.296;149.168;2023-03-23T15:33:02;5;4;
61815;PMS5003;57055;-35.296;149.168;2023-03-23T15:35:37;3;3;
61815;PMS5003;57055;-35.296;149.168;2023-03-23T15:38:14;5;5;
61815;PMS5003;57055;-35.296;149.168;2023-03-23T15:40:49;5;5;
61815;PMS5003;57055;-35.296;149.168;2023-03-23T15:43:20;4;4;
61815;PMS5003;57055;-35.296;149.168;2023-03-23T15:45:55;5;5;
61815;PMS5003;57055;-35.296;149.168;2023-03-23T15:48:26;4;4;
61815;PMS5003;57055;-35.296;149.168;2023-03-23T15:50:55;5;4;
61815;PMS5003;57055;-35.296;149.168;2023-03-23T15:53:27;4;4;
61815;PMS5003;57055;-35.296;149.168;2023-03-23T15:55:59;4;4;
61815;PMS5003;57055;-35.296;149.168;2023-03-23T15:58:29;5;5;
61815;PMS5003;57055;-35.296;149.168;2023-03-23T16:00:59;6;5;
61815;PMS5003;57055;-35.296;149.168;2023-03-23T16:03:33;3;3;
61815;PMS5003;57055;-35.296;149.168;2023-03-23T16:06:08;3;3;
61815;PMS5003;57055;-35.296;149.168;2023-03-23T16:08:38;3;3;
61815;PMS5003;57055;-35.296;149.168;2023-03-23T16:11:08;4;4;
61815;PMS5003;57055;-35.296;149.168;2023-03-23T16:13:39;5;5;
61815;PMS5003;57055;-35.296;149.168;2023-03-23T16:16:10;3;3;
61815;PMS5003;57055;-35.296;149.168;2023-03-23T16:18:42;3;3;
61815;PMS5003;57055;-35.296;149.168;2023-03-23T16:21:11;3;3;
61815;PMS5003;57055;-35.296;149.168;2023-03-23T16:23:39;3;3;
61815;PMS5003;57055;-35.296;149.168;2023-03-23T16:26:08;3;3;
61815;PMS5003;57055;-35.296;149.168;2023-03-23T16:28:37;2;2;
61815;PMS5003;57055;-35.296;149.168;2023-03-23T16:31:06;3;3;
61815;PMS5003;57055;-35.296;149.168;2023-03-23T16:33:35;4;4;
61815;PMS5003;57055;-35.296;149.168;2023-03-23T16:36:04;3;3;